createdAt,value
2019-05-05T11:10:06.176Z,17.40
2019-05-05T11:12:36.639Z,17.20
2019-05-05T11:15:07.140Z,17.40
2019-05-05T11:17:36.787Z,17.40
2019-05-05T11:20:06.807Z,17.60
2019-05-05T11:22:36.464Z,17.70
2019-05-05T11:25:06.383Z,17.70
2019-05-05T11:30:26.816Z,17.70
2019-05-05T11:35:53.777Z,17.90
2019-05-05T11:38:24.734Z,18.00
2019-05-05T11:40:54.782Z,18.00
2019-05-05T11:43:24.892Z,18.00
2019-05-05T11:45:54.650Z,18.00
2019-05-05T11:48:24.557Z,17.90
2019-05-05T11:53:25.160Z,18.10
2019-05-05T11:55:55.303Z,18.30
2019-05-05T11:58:25.180Z,17.80
2019-05-05T12:00:54.895Z,17.80
2019-05-05T12:03:24.749Z,17.80
2019-05-05T12:08:23.900Z,17.90
2019-05-05T12:10:55.532Z,18.20
2019-05-05T12:13:25.256Z,18.10
2019-05-05T12:23:35.318Z,18.30
2019-05-05T12:34:05.897Z,18.50
2019-05-05T12:36:35.551Z,18.10
2019-05-05T12:39:08.283Z,18.20
2019-05-05T12:49:25.421Z,17.50
2019-05-05T12:51:55.539Z,18.10
2019-05-05T12:54:25.356Z,17.70
2019-05-05T12:56:55.009Z,17.90
2019-05-05T12:59:26.340Z,18.00
2019-05-05T13:04:25.342Z,18.60
2019-05-05T13:06:55.035Z,18.10
2019-05-05T13:09:24.688Z,18.20
2019-05-05T13:11:54.559Z,18.40
2019-05-05T13:14:24.212Z,18.40
2019-05-05T13:16:56.057Z,18.30
2019-05-05T13:24:40.635Z,18.50
2019-05-05T13:27:19.250Z,18.00
2019-05-05T13:29:44.276Z,18.30
2019-05-05T13:32:14.392Z,18.40
2019-05-05T13:34:44.457Z,17.70
2019-05-05T13:39:44.544Z,18.30
2019-05-05T13:44:51.288Z,18.50
2019-05-05T13:47:20.939Z,18.10
2019-05-05T13:49:54.180Z,18.40
2019-05-05T13:52:24.369Z,18.20
2019-05-05T13:54:55.548Z,18.30
2019-05-05T13:59:54.691Z,18.50
2019-05-05T14:02:24.618Z,18.70
2019-05-05T14:20:04.491Z,18.30
2019-05-05T14:25:01.204Z,19.00
2019-05-05T14:27:31.223Z,18.60
2019-05-05T14:45:54.646Z,18.80
2019-05-05T14:50:54.384Z,18.70
2019-05-05T14:55:53.923Z,18.20
2019-05-05T14:58:23.580Z,18.60
2019-05-05T15:00:54.576Z,18.20
2019-05-05T15:06:07.371Z,18.70
2019-05-05T15:11:09.512Z,18.50
2019-05-05T15:13:39.235Z,18.60
2019-05-05T15:16:10.214Z,18.90
2019-05-05T15:21:09.403Z,19.10
2019-05-05T15:23:39.055Z,19.00
2019-05-05T15:26:08.703Z,19.30
2019-05-05T15:28:38.419Z,19.00
2019-05-05T15:31:08.142Z,19.20
2019-05-05T15:38:36.230Z,18.40
2019-05-05T15:41:05.948Z,18.60
2019-05-05T15:43:35.672Z,18.20
2019-05-05T15:46:05.416Z,18.50
2019-05-05T15:49:17.967Z,18.80
2019-05-05T15:51:47.699Z,18.70
2019-05-05T15:54:17.362Z,18.70
2019-05-05T15:56:47.007Z,18.70
2019-05-05T15:59:16.657Z,18.60
2019-05-05T16:01:46.308Z,18.60
2019-05-05T16:04:15.955Z,18.50
2019-05-05T16:06:45.612Z,18.60
2019-05-05T16:09:15.255Z,18.60
2019-05-05T16:11:46.768Z,18.30
2019-05-05T16:14:16.252Z,18.80
2019-05-05T16:17:06.335Z,18.30
2019-05-05T16:19:36.725Z,18.00
2019-05-05T16:22:08.007Z,18.10
2019-05-05T16:24:39.361Z,18.50
2019-05-05T18:23:16.129Z,17.90
2019-05-05T18:30:46.580Z,18.20
2019-05-05T18:33:16.227Z,17.60
2019-05-05T18:35:45.882Z,18.20
2019-05-05T18:40:45.821Z,17.90
2019-05-05T18:45:48.030Z,17.80
2019-05-05T18:48:17.751Z,17.80
2019-05-05T18:50:47.415Z,17.80
2019-05-05T18:55:46.939Z,17.80
2019-05-05T19:01:08.428Z,17.80
2019-05-05T19:03:45.788Z,18.20
2019-05-05T19:08:54.250Z,18.30
2019-05-05T19:11:19.292Z,18.50
2019-05-05T19:13:48.944Z,18.40
2019-05-05T19:16:18.616Z,18.60
2019-05-05T19:18:48.324Z,18.40
2019-05-05T19:21:24.889Z,18.40
2019-05-05T19:31:24.722Z,18.90
2019-05-05T19:38:56.377Z,19.40
2019-05-05T19:41:26.039Z,19.90
2019-05-05T19:43:55.719Z,19.50
2019-05-05T19:46:27.024Z,19.40
2019-05-05T19:49:15.923Z,19.50
2019-05-05T19:59:15.281Z,19.70
2019-05-05T20:11:44.368Z,19.70
2019-05-05T20:14:15.113Z,19.40
2019-05-05T20:17:04.347Z,19.50
2019-05-05T20:19:35.705Z,19.80
2019-05-05T20:24:34.600Z,19.80
2019-05-05T20:27:04.644Z,19.70
2019-05-05T20:29:37.316Z,19.40
2019-05-05T20:32:06.202Z,19.70
2019-05-05T20:34:43.503Z,20.20
2019-05-05T20:37:14.919Z,19.70
2019-05-05T20:39:44.589Z,19.60
2019-05-05T20:42:14.875Z,19.80
2019-05-05T20:47:14.204Z,19.40
2019-05-05T20:49:44.405Z,19.50
2019-05-05T20:52:14.421Z,19.60
2019-05-05T20:54:44.226Z,19.60
2019-05-05T20:57:14.214Z,19.30
2019-05-05T20:59:44.527Z,19.90
2019-05-05T21:02:14.641Z,19.40
2019-05-05T21:04:44.655Z,19.40
2019-05-05T21:09:44.904Z,19.50
2019-05-05T21:12:14.575Z,19.40
2019-05-05T21:14:44.769Z,19.40
2019-05-05T21:17:14.821Z,19.30
2019-05-05T21:19:44.872Z,19.70
2019-05-05T21:22:34.283Z,19.50
2019-05-05T21:25:24.999Z,19.60
2019-05-05T21:27:54.671Z,19.40
2019-05-05T21:30:25.919Z,19.30
2019-05-05T21:32:55.618Z,19.60
2019-05-05T21:35:25.332Z,19.20
2019-05-05T21:37:54.992Z,19.00
2019-05-05T21:40:25.528Z,19.20
2019-05-05T21:45:24.827Z,19.10
2019-05-05T21:47:54.944Z,19.10
2019-05-05T21:50:33.917Z,19.10
2019-05-05T21:58:23.282Z,19.20
2019-05-05T22:00:55.027Z,19.00
2019-05-05T22:03:35.280Z,19.30
2019-05-05T22:06:05.457Z,19.20
2019-05-05T22:11:05.728Z,18.80
2019-05-05T22:13:36.570Z,18.70
2019-05-05T22:16:06.609Z,19.20
2019-05-05T22:21:07.321Z,18.60
2019-05-05T22:23:37.107Z,18.80
2019-05-05T22:26:06.852Z,18.80
